sensor_id;sensor_type;location;lat;lon;timestamp;pressure;altitude;pressure_sealevel;temperature;humidity
65659;BME280;60181;53.258;6.932;2022-10-23T00:01:19;101657.18;;;16.29;69.71
65659;BME280;60181;53.258;6.932;2022-10-23T00:05:45;101654.26;;;16.29;69.57
65659;BME280;60181;53.258;6.932;2022-10-23T00:10:13;101651.20;;;16.28;69.59
65659;BME280;60181;53.258;6.932;2022-10-23T00:14:41;101647.88;;;16.28;69.38
65659;BME280;60181;53.258;6.932;2022-10-23T00:19:09;101643.58;;;16.27;69.36
65659;BME280;60181;53.258;6.932;2022-10-23T00:23:37;101639.92;;;16.27;69.21
65659;BME280;60181;53.258;6.932;2022-10-23T00:28:05;101637.52;;;16.26;69.20
65659;BME280;60181;53.258;6.932;2022-10-23T00:32:33;101635.38;;;16.26;69.21
65659;BME280;60181;53.258;6.932;2022-10-23T00:37:01;101631.87;;;16.25;69.24
65659;BME280;60181;53.258;6.932;2022-10-23T00:41:29;101629.91;;;16.25;69.15
65659;BME280;60181;53.258;6.932;2022-10-23T00:45:57;101628.55;;;16.24;69.17
65659;BME280;60181;53.258;6.932;2022-10-23T00:50:26;101627.73;;;16.24;69.00
65659;BME280;60181;53.258;6.932;2022-10-23T00:54:53;101626.72;;;16.23;69.16
65659;BME280;60181;53.258;6.932;2022-10-23T00:59:21;101625.06;;;16.23;68.98
65659;BME280;60181;53.258;6.932;2022-10-23T01:03:49;101624.13;;;16.22;68.97
65659;BME280;60181;53.258;6.932;2022-10-23T01:08:22;101625.62;;;16.22;69.01
65659;BME280;60181;53.258;6.932;2022-10-23T01:26:15;101633.01;;;16.20;69.29
65659;BME280;60181;53.258;6.932;2022-10-23T01:30:39;101635.17;;;16.19;69.45
65659;BME280;60181;53.258;6.932;2022-10-23T01:35:13;101635.14;;;16.19;69.28
65659;BME280;60181;53.258;6.932;2022-10-23T01:39:35;101634.49;;;16.18;69.29
65659;BME280;60181;53.258;6.932;2022-10-23T01:44:12;101632.65;;;16.18;69.34
65659;BME280;60181;53.258;6.932;2022-10-23T01:48:29;101631.25;;;16.17;69.29
65659;BME280;60181;53.258;6.932;2022-10-23T01:52:57;101629.24;;;16.16;69.38
65659;BME280;60181;53.258;6.932;2022-10-23T01:57:27;101627.40;;;16.16;69.27
65659;BME280;60181;53.258;6.932;2022-10-23T02:01:54;101624.52;;;16.15;69.30
65659;BME280;60181;53.258;6.932;2022-10-23T02:06:21;101621.19;;;16.14;69.15
65659;BME280;60181;53.258;6.932;2022-10-23T02:19:47;101609.84;;;16.13;69.37
65659;BME280;60181;53.258;6.932;2022-10-23T02:24:15;101605.69;;;16.12;69.38
65659;BME280;60181;53.258;6.932;2022-10-23T02:28:48;101602.64;;;16.12;69.26
65659;BME280;60181;53.258;6.932;2022-10-23T02:33:09;101600.08;;;16.11;69.31
65659;BME280;60181;53.258;6.932;2022-10-23T02:37:37;101597.16;;;16.11;69.37
65659;BME280;60181;53.258;6.932;2022-10-23T02:51:05;101590.70;;;16.09;69.22
65659;BME280;60181;53.258;6.932;2022-10-23T03:00:05;101584.81;;;16.08;69.16
65659;BME280;60181;53.258;6.932;2022-10-23T03:04:25;101580.65;;;16.08;69.08
65659;BME280;60181;53.258;6.932;2022-10-23T03:08:56;101577.09;;;16.08;68.97
65659;BME280;60181;53.258;6.932;2022-10-23T03:13:21;101574.13;;;16.08;68.95
65659;BME280;60181;53.258;6.932;2022-10-23T03:17:49;101569.50;;;16.08;68.74
65659;BME280;60181;53.258;6.932;2022-10-23T03:22:17;101563.22;;;16.08;68.49
65659;BME280;60181;53.258;6.932;2022-10-23T03:26:45;101557.82;;;16.07;68.96
65659;BME280;60181;53.258;6.932;2022-10-23T03:31:13;101552.12;;;16.07;68.60
65659;BME280;60181;53.258;6.932;2022-10-23T03:35:41;101545.48;;;16.06;68.65
65659;BME280;60181;53.258;6.932;2022-10-23T03:40:09;101541.03;;;16.05;68.66
65659;BME280;60181;53.258;6.932;2022-10-23T03:44:37;101539.20;;;16.04;68.51
65659;BME280;60181;53.258;6.932;2022-10-23T03:49:05;101538.26;;;16.03;68.58
65659;BME280;60181;53.258;6.932;2022-10-23T03:53:33;101538.16;;;16.02;68.58
65659;BME280;60181;53.258;6.932;2022-10-23T03:58:01;101536.51;;;16.02;68.64
65659;BME280;60181;53.258;6.932;2022-10-23T04:02:29;101534.22;;;16.03;69.26
65659;BME280;60181;53.258;6.932;2022-10-23T04:06:57;101532.56;;;16.03;69.31
65659;BME280;60181;53.258;6.932;2022-10-23T04:11:25;101531.20;;;16.05;70.59
65659;BME280;60181;53.258;6.932;2022-10-23T04:15:53;101529.01;;;16.07;70.40
65659;BME280;60181;53.258;6.932;2022-10-23T04:20:21;101527.45;;;16.08;70.67
65659;BME280;60181;53.258;6.932;2022-10-23T04:24:49;101524.83;;;16.09;70.77
65659;BME280;60181;53.258;6.932;2022-10-23T04:29:17;101522.38;;;16.10;71.04
65659;BME280;60181;53.258;6.932;2022-10-23T04:33:45;101518.89;;;16.11;70.67
65659;BME280;60181;53.258;6.932;2022-10-23T04:38:13;101516.33;;;16.11;70.89
65659;BME280;60181;53.258;6.932;2022-10-23T04:42:41;101512.86;;;16.11;71.07
65659;BME280;60181;53.258;6.932;2022-10-23T04:47:09;101511.21;;;16.11;71.25
65659;BME280;60181;53.258;6.932;2022-10-23T04:51:37;101509.72;;;16.11;70.88
65659;BME280;60181;53.258;6.932;2022-10-23T04:56:05;101505.50;;;16.11;71.19
65659;BME280;60181;53.258;6.932;2022-10-23T05:00:33;101501.29;;;16.11;70.81
65659;BME280;60181;53.258;6.932;2022-10-23T05:05:01;101497.60;;;16.11;70.63
65659;BME280;60181;53.258;6.932;2022-10-23T05:09:29;101495.43;;;16.12;70.63
65659;BME280;60181;53.258;6.932;2022-10-23T05:13:57;101496.54;;;16.13;70.67
65659;BME280;60181;53.258;6.932;2022-10-23T05:18:29;101496.70;;;16.13;70.84
65659;BME280;60181;53.258;6.932;2022-10-23T05:22:53;101494.89;;;16.13;70.78
65659;BME280;60181;53.258;6.932;2022-10-23T05:27:21;101492.91;;;16.13;71.05
65659;BME280;60181;53.258;6.932;2022-10-23T05:31:49;101490.42;;;16.13;70.88
65659;BME280;60181;53.258;6.932;2022-10-23T05:36:17;101486.95;;;16.13;70.86
65659;BME280;60181;53.258;6.932;2022-10-23T05:40:45;101483.40;;;16.13;70.87
65659;BME280;60181;53.258;6.932;2022-10-23T05:45:13;101479.85;;;16.13;70.78
65659;BME280;60181;53.258;6.932;2022-10-23T05:49:41;101475.47;;;16.13;71.04
65659;BME280;60181;53.258;6.932;2022-10-23T05:54:09;101470.23;;;16.12;70.90
65659;BME280;60181;53.258;6.932;2022-10-23T05:58:37;101465.94;;;16.12;70.88
65659;BME280;60181;53.258;6.932;2022-10-23T06:03:05;101463.05;;;16.12;70.84
65659;BME280;60181;53.258;6.932;2022-10-23T06:07:33;101459.17;;;16.12;71.28
65659;BME280;60181;53.258;6.932;2022-10-23T06:12:01;101454.46;;;16.11;70.93
65659;BME280;60181;53.258;6.932;2022-10-23T06:16:29;101449.50;;;16.11;70.80
65659;BME280;60181;53.258;6.932;2022-10-23T06:20:58;101446.94;;;16.12;70.77
65659;BME280;60181;53.258;6.932;2022-10-23T06:25:25;101444.78;;;16.12;70.74
65659;BME280;60181;53.258;6.932;2022-10-23T06:29:53;101441.72;;;16.12;70.72
65659;BME280;60181;53.258;6.932;2022-10-23T06:34:21;101439.74;;;16.12;70.72
65659;BME280;60181;53.258;6.932;2022-10-23T06:38:49;101437.09;;;16.12;70.68
65659;BME280;60181;53.258;6.932;2022-10-23T06:43:17;101435.36;;;16.12;70.73
65659;BME280;60181;53.258;6.932;2022-10-23T06:47:45;101433.62;;;16.12;70.70
65659;BME280;60181;53.258;6.932;2022-10-23T06:52:13;101433.37;;;16.12;70.68
65659;BME280;60181;53.258;6.932;2022-10-23T06:56:41;101433.54;;;16.12;70.65
65659;BME280;60181;53.258;6.932;2022-10-23T07:01:10;101435.38;;;16.13;70.97
65659;BME280;60181;53.258;6.932;2022-10-23T07:05:37;101437.51;;;16.12;70.87
65659;BME280;60181;53.258;6.932;2022-10-23T07:10:05;101439.94;;;16.13;70.73
65659;BME280;60181;53.258;6.932;2022-10-23T07:14:33;101441.83;;;16.13;70.73
65659;BME280;60181;53.258;6.932;2022-10-23T07:19:01;101442.24;;;16.13;70.70
65659;BME280;60181;53.258;6.932;2022-10-23T07:23:29;101443.89;;;16.14;70.71
65659;BME280;60181;53.258;6.932;2022-10-23T07:27:57;101443.83;;;16.14;70.69
65659;BME280;60181;53.258;6.932;2022-10-23T07:32:25;101444.36;;;16.16;70.81
65659;BME280;60181;53.258;6.932;2022-10-23T07:36:53;101445.00;;;16.21;71.25
65659;BME280;60181;53.258;6.932;2022-10-23T07:41:21;101445.54;;;16.24;70.78
65659;BME280;60181;53.258;6.932;2022-10-23T07:45:49;101443.91;;;16.25;70.75
65659;BME280;60181;53.258;6.932;2022-10-23T07:50:17;101442.77;;;16.26;70.93
65659;BME280;60181;53.258;6.932;2022-10-23T07:54:45;101439.79;;;16.26;70.95
65659;BME280;60181;53.258;6.932;2022-10-23T07:59:13;101435.58;;;16.27;70.86
65659;BME280;60181;53.258;6.932;2022-10-23T08:03:41;101431.63;;;16.27;70.93
65659;BME280;60181;53.258;6.932;2022-10-23T08:08:09;101427.74;;;16.28;70.85
65659;BME280;60181;53.258;6.932;2022-10-23T08:12:37;101423.86;;;16.28;71.24
65659;BME280;60181;53.258;6.932;2022-10-23T08:17:05;101420.81;;;16.29;71.10
65659;BME280;60181;53.258;6.932;2022-10-23T08:21:33;101417.10;;;16.29;71.05
65659;BME280;60181;53.258;6.932;2022-10-23T08:26:01;101412.16;;;16.29;70.98
65659;BME280;60181;53.258;6.932;2022-10-23T08:30:29;101405.45;;;16.30;70.93
65659;BME280;60181;53.258;6.932;2022-10-23T08:34:57;101399.28;;;16.30;70.89
65659;BME280;60181;53.258;6.932;2022-10-23T08:39:25;101393.64;;;16.31;70.84
65659;BME280;60181;53.258;6.932;2022-10-23T08:43:55;101390.13;;;16.33;70.82
65659;BME280;60181;53.258;6.932;2022-10-23T08:48:31;101387.17;;;16.34;70.79
65659;BME280;60181;53.258;6.932;2022-10-23T08:52:50;101384.95;;;16.35;70.75
65659;BME280;60181;53.258;6.932;2022-10-23T08:57:17;101382.37;;;16.36;70.71
65659;BME280;60181;53.258;6.932;2022-10-23T09:01:45;101381.90;;;16.37;70.71
65659;BME280;60181;53.258;6.932;2022-10-23T09:06:19;101377.28;;;16.38;70.70
65659;BME280;60181;53.258;6.932;2022-10-23T09:15:14;101369.87;;;16.40;70.66
65659;BME280;60181;53.258;6.932;2022-10-23T09:19:37;101367.83;;;16.41;71.26
65659;BME280;60181;53.258;6.932;2022-10-23T09:24:09;101366.35;;;16.42;70.82
65659;BME280;60181;53.258;6.932;2022-10-23T09:28:39;101365.06;;;16.44;70.66
65659;BME280;60181;53.258;6.932;2022-10-23T09:33:12;101362.50;;;16.46;70.57
65659;BME280;60181;53.258;6.932;2022-10-23T09:37:30;101359.55;;;16.48;70.43
65659;BME280;60181;53.258;6.932;2022-10-23T09:41:57;101355.62;;;16.50;70.44
65659;BME280;60181;53.258;6.932;2022-10-23T09:46:35;101352.09;;;16.52;70.37
65659;BME280;60181;53.258;6.932;2022-10-23T09:50:56;101349.11;;;16.54;70.32
65659;BME280;60181;53.258;6.932;2022-10-23T09:55:21;101344.70;;;16.56;70.24
65659;BME280;60181;53.258;6.932;2022-10-23T09:59:49;101338.69;;;16.59;70.17
65659;BME280;60181;53.258;6.932;2022-10-23T10:04:17;101333.51;;;16.62;70.14
65659;BME280;60181;53.258;6.932;2022-10-23T10:08:45;101327.59;;;16.64;70.16
65659;BME280;60181;53.258;6.932;2022-10-23T10:17:52;101314.12;;;16.67;70.21
65659;BME280;60181;53.258;6.932;2022-10-23T10:31:16;101293.89;;;16.69;70.27
65659;BME280;60181;53.258;6.932;2022-10-23T10:35:35;101288.53;;;16.70;70.33
65659;BME280;60181;53.258;6.932;2022-10-23T10:40:08;101283.25;;;16.71;70.33
65659;BME280;60181;53.258;6.932;2022-10-23T10:49:14;101272.96;;;16.74;70.30
65659;BME280;60181;53.258;6.932;2022-10-23T10:57:56;101261.22;;;16.76;70.41
65659;BME280;60181;53.258;6.932;2022-10-23T11:02:24;101254.86;;;16.78;70.37
65659;BME280;60181;53.258;6.932;2022-10-23T11:06:50;101249.91;;;16.79;70.45
65659;BME280;60181;53.258;6.932;2022-10-23T11:11:18;101244.36;;;16.79;70.50
65659;BME280;60181;53.258;6.932;2022-10-23T11:15:44;101239.64;;;16.79;70.49
65659;BME280;60181;53.258;6.932;2022-10-23T11:20:15;101235.50;;;16.79;70.57
65659;BME280;60181;53.258;6.932;2022-10-23T11:38:17;101200.87;;;16.79;71.47
65659;BME280;60181;53.258;6.932;2022-10-23T11:42:43;101188.62;;;16.80;71.69
65659;BME280;60181;53.258;6.932;2022-10-23T11:47:02;101178.03;;;16.80;70.99
65659;BME280;60181;53.258;6.932;2022-10-23T11:51:30;101169.92;;;16.80;71.03
65659;BME280;60181;53.258;6.932;2022-10-23T11:56:04;101163.81;;;16.79;71.09
65659;BME280;60181;53.258;6.932;2022-10-23T12:00:25;101157.59;;;16.79;71.06
65659;BME280;60181;53.258;6.932;2022-10-23T12:04:52;101148.89;;;16.78;71.09
65659;BME280;60181;53.258;6.932;2022-10-23T12:09:22;101134.57;;;16.77;71.18
65659;BME280;60181;53.258;6.932;2022-10-23T12:13:48;101118.59;;;16.76;71.03
65659;BME280;60181;53.258;6.932;2022-10-23T12:18:16;101102.03;;;16.75;71.12
65659;BME280;60181;53.258;6.932;2022-10-23T12:27:18;101081.86;;;16.73;71.20
65659;BME280;60181;53.258;6.932;2022-10-23T12:40:36;101058.03;;;16.72;71.17
65659;BME280;60181;53.258;6.932;2022-10-23T12:45:13;101049.93;;;16.72;71.10
65659;BME280;60181;53.258;6.932;2022-10-23T12:49:32;101044.22;;;16.72;71.07
65659;BME280;60181;53.258;6.932;2022-10-23T12:54:01;101037.60;;;16.72;71.15
65659;BME280;60181;53.258;6.932;2022-10-23T12:58:29;101028.91;;;16.72;71.08
65659;BME280;60181;53.258;6.932;2022-10-23T13:03:00;101020.14;;;16.72;71.06
65659;BME280;60181;53.258;6.932;2022-10-23T13:07:25;101013.44;;;16.72;71.27
65659;BME280;60181;53.258;6.932;2022-10-23T13:11:52;101005.94;;;16.73;71.12
65659;BME280;60181;53.258;6.932;2022-10-23T13:16:21;100997.50;;;16.73;71.17
65659;BME280;60181;53.258;6.932;2022-10-23T13:20:55;100989.62;;;16.72;71.17
65659;BME280;60181;53.258;6.932;2022-10-23T13:25:23;100981.67;;;16.72;71.18
65659;BME280;60181;53.258;6.932;2022-10-23T13:29:44;100973.16;;;16.72;71.27
65659;BME280;60181;53.258;6.932;2022-10-23T13:43:11;100940.59;;;16.72;71.22
65659;BME280;60181;53.258;6.932;2022-10-23T13:47:36;100930.83;;;16.72;71.32
65659;BME280;60181;53.258;6.932;2022-10-23T13:52:07;100919.89;;;16.71;71.24
65659;BME280;60181;53.258;6.932;2022-10-23T13:56:32;100911.13;;;16.71;71.27
65659;BME280;60181;53.258;6.932;2022-10-23T14:01:00;100902.51;;;16.71;71.25
65659;BME280;60181;53.258;6.932;2022-10-23T14:05:28;100895.17;;;16.71;71.39
65659;BME280;60181;53.258;6.932;2022-10-23T14:09:56;100890.20;;;16.71;71.27
65659;BME280;60181;53.258;6.932;2022-10-23T14:14:24;100882.92;;;16.71;71.30
65659;BME280;60181;53.258;6.932;2022-10-23T14:18:52;100875.48;;;16.71;71.30
65659;BME280;60181;53.258;6.932;2022-10-23T14:23:20;100870.00;;;16.70;71.35
65659;BME280;60181;53.258;6.932;2022-10-23T14:27:48;100863.56;;;16.70;71.34
65659;BME280;60181;53.258;6.932;2022-10-23T14:32:16;100858.51;;;16.69;71.44
65659;BME280;60181;53.258;6.932;2022-10-23T14:36:44;100851.50;;;16.68;71.43
65659;BME280;60181;53.258;6.932;2022-10-23T14:41:13;100843.63;;;16.68;71.61
65659;BME280;60181;53.258;6.932;2022-10-23T14:45:40;100836.66;;;16.67;71.61
65659;BME280;60181;53.258;6.932;2022-10-23T14:50:09;100829.74;;;16.67;71.58
65659;BME280;60181;53.258;6.932;2022-10-23T14:54:36;100821.86;;;16.66;71.67
65659;BME280;60181;53.258;6.932;2022-10-23T14:59:04;100815.26;;;16.65;71.51
65659;BME280;60181;53.258;6.932;2022-10-23T15:03:32;100811.55;;;16.65;71.55
65659;BME280;60181;53.258;6.932;2022-10-23T15:08:00;100808.22;;;16.64;71.56
65659;BME280;60181;53.258;6.932;2022-10-23T15:12:28;100803.51;;;16.64;71.59
65659;BME280;60181;53.258;6.932;2022-10-23T15:16:56;100799.30;;;16.64;71.47
65659;BME280;60181;53.258;6.932;2022-10-23T15:21:24;100794.72;;;16.64;71.58
65659;BME280;60181;53.258;6.932;2022-10-23T15:25:58;100789.36;;;16.63;71.64
65659;BME280;60181;53.258;6.932;2022-10-23T15:30:20;100783.65;;;16.63;71.59
65659;BME280;60181;53.258;6.932;2022-10-23T15:34:48;100775.97;;;16.63;71.69
65659;BME280;60181;53.258;6.932;2022-10-23T15:39:18;100768.52;;;16.62;71.71
65659;BME280;60181;53.258;6.932;2022-10-23T15:43:44;100763.07;;;16.62;71.72
65659;BME280;60181;53.258;6.932;2022-10-23T15:48:12;100758.42;;;16.61;71.77
65659;BME280;60181;53.258;6.932;2022-10-23T15:52:40;100753.56;;;16.61;71.76
65659;BME280;60181;53.258;6.932;2022-10-23T15:57:08;100745.84;;;16.60;71.76
65659;BME280;60181;53.258;6.932;2022-10-23T16:01:36;100737.84;;;16.60;71.85
65659;BME280;60181;53.258;6.932;2022-10-23T16:06:09;100728.66;;;16.59;71.91
65659;BME280;60181;53.258;6.932;2022-10-23T16:10:32;100721.12;;;16.58;71.88
65659;BME280;60181;53.258;6.932;2022-10-23T16:15:00;100713.36;;;16.57;71.82
65659;BME280;60181;53.258;6.932;2022-10-23T16:19:28;100705.24;;;16.57;71.85
65659;BME280;60181;53.258;6.932;2022-10-23T16:23:57;100697.89;;;16.57;71.84
65659;BME280;60181;53.258;6.932;2022-10-23T16:28:24;100690.86;;;16.56;72.68
65659;BME280;60181;53.258;6.932;2022-10-23T16:32:52;100685.41;;;16.56;72.31
65659;BME280;60181;53.258;6.932;2022-10-23T16:37:20;100678.44;;;16.56;71.94
65659;BME280;60181;53.258;6.932;2022-10-23T16:41:48;100671.92;;;16.56;71.95
65659;BME280;60181;53.258;6.932;2022-10-23T16:46:17;100668.70;;;16.55;71.94
65659;BME280;60181;53.258;6.932;2022-10-23T16:50:44;100667.07;;;16.55;71.98
65659;BME280;60181;53.258;6.932;2022-10-23T16:55:12;100665.96;;;16.55;71.99
65659;BME280;60181;53.258;6.932;2022-10-23T16:59:40;100663.00;;;16.54;72.00
65659;BME280;60181;53.258;6.932;2022-10-23T17:04:08;100659.12;;;16.54;71.98
65659;BME280;60181;53.258;6.932;2022-10-23T17:08:36;100653.55;;;16.54;72.07
65659;BME280;60181;53.258;6.932;2022-10-23T17:13:04;100650.34;;;16.53;72.02
65659;BME280;60181;53.258;6.932;2022-10-23T17:17:32;100646.30;;;16.53;72.04
65659;BME280;60181;53.258;6.932;2022-10-23T17:22:00;100642.58;;;16.53;72.06
65659;BME280;60181;53.258;6.932;2022-10-23T17:26:28;100638.67;;;16.53;72.03
65659;BME280;60181;53.258;6.932;2022-10-23T17:30:56;100634.47;;;16.52;72.04
65659;BME280;60181;53.258;6.932;2022-10-23T17:35:24;100628.77;;;16.52;72.07
65659;BME280;60181;53.258;6.932;2022-10-23T17:39:52;100623.64;;;16.52;72.09
65659;BME280;60181;53.258;6.932;2022-10-23T17:44:20;100618.19;;;16.52;72.08
65659;BME280;60181;53.258;6.932;2022-10-23T17:48:48;100613.79;;;16.51;72.10
65659;BME280;60181;53.258;6.932;2022-10-23T17:53:16;100610.16;;;16.51;72.16
65659;BME280;60181;53.258;6.932;2022-10-23T17:57:44;100607.26;;;16.51;72.14
65659;BME280;60181;53.258;6.932;2022-10-23T18:02:12;100606.11;;;16.51;72.11
65659;BME280;60181;53.258;6.932;2022-10-23T18:06:41;100605.94;;;16.51;72.16
65659;BME280;60181;53.258;6.932;2022-10-23T18:15:36;100607.61;;;16.51;72.11
65659;BME280;60181;53.258;6.932;2022-10-23T18:20:04;100608.11;;;16.51;72.16
65659;BME280;60181;53.258;6.932;2022-10-23T18:24:32;100606.28;;;16.51;72.17
65659;BME280;60181;53.258;6.932;2022-10-23T18:29:00;100605.46;;;16.51;72.17
65659;BME280;60181;53.258;6.932;2022-10-23T18:33:28;100603.04;;;16.50;72.17
65659;BME280;60181;53.258;6.932;2022-10-23T18:37:56;100599.66;;;16.50;72.22
65659;BME280;60181;53.258;6.932;2022-10-23T18:42:24;100597.51;;;16.50;72.18
65659;BME280;60181;53.258;6.932;2022-10-23T18:46:52;100592.47;;;16.50;72.20
65659;BME280;60181;53.258;6.932;2022-10-23T18:51:21;100588.50;;;16.50;72.18
65659;BME280;60181;53.258;6.932;2022-10-23T18:55:48;100586.19;;;16.50;72.17
65659;BME280;60181;53.258;6.932;2022-10-23T19:00:16;100583.54;;;16.50;72.19
65659;BME280;60181;53.258;6.932;2022-10-23T19:04:44;100578.01;;;16.49;72.20
65659;BME280;60181;53.258;6.932;2022-10-23T19:09:12;100573.55;;;16.49;72.20
65659;BME280;60181;53.258;6.932;2022-10-23T19:13:40;100571.73;;;16.49;72.24
65659;BME280;60181;53.258;6.932;2022-10-23T19:18:08;100568.31;;;16.49;72.21
65659;BME280;60181;53.258;6.932;2022-10-23T19:22:36;100565.34;;;16.49;72.21
65659;BME280;60181;53.258;6.932;2022-10-23T19:27:04;100561.79;;;16.49;72.25
65659;BME280;60181;53.258;6.932;2022-10-23T19:31:32;100557.42;;;16.49;72.28
65659;BME280;60181;53.258;6.932;2022-10-23T19:36:00;100554.61;;;16.49;72.19
65659;BME280;60181;53.258;6.932;2022-10-23T19:40:28;100551.70;;;16.49;72.23
65659;BME280;60181;53.258;6.932;2022-10-23T19:44:56;100548.97;;;16.49;72.23
65659;BME280;60181;53.258;6.932;2022-10-23T19:49:24;100545.61;;;16.49;72.21
65659;BME280;60181;53.258;6.932;2022-10-23T19:53:53;100541.71;;;16.50;72.26
65659;BME280;60181;53.258;6.932;2022-10-23T19:58:20;100538.23;;;16.50;72.29
65659;BME280;60181;53.258;6.932;2022-10-23T20:02:48;100534.18;;;16.50;72.29
65659;BME280;60181;53.258;6.932;2022-10-23T20:07:16;100527.23;;;16.50;72.31
65659;BME280;60181;53.258;6.932;2022-10-23T20:11:44;100522.35;;;16.50;72.33
65659;BME280;60181;53.258;6.932;2022-10-23T20:16:16;100519.15;;;16.51;72.34
65659;BME280;60181;53.258;6.932;2022-10-23T20:20:40;100515.08;;;16.51;72.52
65659;BME280;60181;53.258;6.932;2022-10-23T20:25:08;100511.28;;;16.55;72.81
65659;BME280;60181;53.258;6.932;2022-10-23T20:29:36;100511.87;;;16.57;72.46
65659;BME280;60181;53.258;6.932;2022-10-23T20:34:04;100510.11;;;16.58;72.81
65659;BME280;60181;53.258;6.932;2022-10-23T20:38:32;100506.98;;;16.59;73.12
65659;BME280;60181;53.258;6.932;2022-10-23T20:43:00;100503.99;;;16.59;73.04
65659;BME280;60181;53.258;6.932;2022-10-23T20:47:28;100501.12;;;16.59;73.22
65659;BME280;60181;53.258;6.932;2022-10-23T20:51:56;100495.90;;;16.60;73.35
65659;BME280;60181;53.258;6.932;2022-10-23T20:56:25;100490.52;;;16.60;73.44
65659;BME280;60181;53.258;6.932;2022-10-23T21:00:52;100488.61;;;16.60;73.61
65659;BME280;60181;53.258;6.932;2022-10-23T21:05:20;100489.76;;;16.60;73.73
65659;BME280;60181;53.258;6.932;2022-10-23T21:09:48;100493.59;;;16.61;73.79
65659;BME280;60181;53.258;6.932;2022-10-23T21:14:16;100497.72;;;16.61;74.04
65659;BME280;60181;53.258;6.932;2022-10-23T21:18:44;100501.60;;;16.61;73.92
65659;BME280;60181;53.258;6.932;2022-10-23T21:23:12;100507.70;;;16.61;73.99
65659;BME280;60181;53.258;6.932;2022-10-23T21:27:40;100511.45;;;16.62;74.06
65659;BME280;60181;53.258;6.932;2022-10-23T21:32:08;100513.67;;;16.62;74.12
65659;BME280;60181;53.258;6.932;2022-10-23T21:36:36;100515.23;;;16.62;74.23
65659;BME280;60181;53.258;6.932;2022-10-23T21:41:05;100516.30;;;16.62;74.22
65659;BME280;60181;53.258;6.932;2022-10-23T21:45:33;100517.57;;;16.63;74.41
65659;BME280;60181;53.258;6.932;2022-10-23T21:50:00;100518.89;;;16.63;74.31
65659;BME280;60181;53.258;6.932;2022-10-23T21:54:28;100520.12;;;16.63;74.29
65659;BME280;60181;53.258;6.932;2022-10-23T21:58:56;100520.70;;;16.63;74.36
65659;BME280;60181;53.258;6.932;2022-10-23T22:03:24;100523.25;;;16.63;74.71
65659;BME280;60181;53.258;6.932;2022-10-23T22:07:52;100525.58;;;16.64;75.44
65659;BME280;60181;53.258;6.932;2022-10-23T22:12:20;100527.88;;;16.64;74.55
65659;BME280;60181;53.258;6.932;2022-10-23T22:16:48;100529.11;;;16.65;74.60
65659;BME280;60181;53.258;6.932;2022-10-23T22:21:17;100529.72;;;16.65;74.64
65659;BME280;60181;53.258;6.932;2022-10-23T22:25:43;100531.20;;;16.65;74.50
65659;BME280;60181;53.258;6.932;2022-10-23T22:30:12;100530.38;;;16.65;74.53
65659;BME280;60181;53.258;6.932;2022-10-23T22:34:39;100527.13;;;16.65;74.56
65659;BME280;60181;53.258;6.932;2022-10-23T22:39:07;100524.66;;;16.65;74.59
65659;BME280;60181;53.258;6.932;2022-10-23T22:43:36;100523.49;;;16.65;74.51
65659;BME280;60181;53.258;6.932;2022-10-23T22:48:04;100521.26;;;16.64;74.50
65659;BME280;60181;53.258;6.932;2022-10-23T22:52:31;100521.60;;;16.64;74.45
65659;BME280;60181;53.258;6.932;2022-10-23T22:56:59;100523.83;;;16.65;74.44
65659;BME280;60181;53.258;6.932;2022-10-23T23:01:32;100525.90;;;16.64;74.50
65659;BME280;60181;53.258;6.932;2022-10-23T23:05:55;100527.55;;;16.64;74.55
65659;BME280;60181;53.258;6.932;2022-10-23T23:10:24;100528.63;;;16.65;74.58
65659;BME280;60181;53.258;6.932;2022-10-23T23:14:51;100528.40;;;16.65;74.60
65659;BME280;60181;53.258;6.932;2022-10-23T23:19:20;100528.14;;;16.65;74.67
65659;BME280;60181;53.258;6.932;2022-10-23T23:23:47;100526.32;;;16.65;74.71
65659;BME280;60181;53.258;6.932;2022-10-23T23:28:16;100527.89;;;16.65;74.78
65659;BME280;60181;53.258;6.932;2022-10-23T23:32:45;100528.71;;;16.65;74.72
65659;BME280;60181;53.258;6.932;2022-10-23T23:37:11;100531.69;;;16.65;74.83
65659;BME280;60181;53.258;6.932;2022-10-23T23:41:39;100536.16;;;16.65;75.27
65659;BME280;60181;53.258;6.932;2022-10-23T23:46:07;100538.31;;;16.65;74.89
65659;BME280;60181;53.258;6.932;2022-10-23T23:50:35;100542.53;;;16.65;74.70
65659;BME280;60181;53.258;6.932;2022-10-23T23:55:04;100546.24;;;16.65;74.92
65659;BME280;60181;53.258;6.932;2022-10-23T23:59:35;100548.39;;;16.65;74.67
